createdAt,value
2023-02-14T00:02:56.805Z,9.90
2023-02-14T00:07:07.085Z,9.90
2023-02-14T00:11:17.027Z,9.90
2023-02-14T00:15:28.186Z,9.80
2023-02-14T00:19:37.450Z,9.80
2023-02-14T00:23:46.767Z,9.70
2023-02-14T00:27:56.048Z,9.70
2023-02-14T00:32:07.435Z,9.70
2023-02-14T00:36:24.490Z,9.60
2023-02-14T00:40:33.704Z,9.70
2023-02-14T00:44:43.285Z,9.60
2023-02-14T00:48:54.588Z,9.60
2023-02-14T00:53:03.889Z,9.60
2023-02-14T00:57:13.190Z,9.60
2023-02-14T01:01:22.658Z,9.50
2023-02-14T01:05:33.545Z,9.40
2023-02-14T01:09:42.933Z,9.40
2023-02-14T01:13:54.544Z,9.50
2023-02-14T01:18:04.060Z,9.50
2023-02-14T01:22:15.425Z,9.50
2023-02-14T01:26:26.026Z,9.40
2023-02-14T01:30:37.573Z,9.50
2023-02-14T01:34:48.328Z,9.60
2023-02-14T01:39:02.573Z,9.60
2023-02-14T01:43:16.853Z,9.60
2023-02-14T01:47:30.431Z,9.50
2023-02-14T01:51:46.474Z,9.50
2023-02-14T01:56:08.780Z,9.50
2023-02-14T02:00:36.775Z,9.50
2023-02-14T02:04:48.159Z,9.60
2023-02-14T02:09:08.246Z,9.50
2023-02-14T02:13:20.713Z,9.50
2023-02-14T02:17:42.959Z,9.50
2023-02-14T02:22:16.096Z,9.60
2023-02-14T02:26:59.795Z,9.60
2023-02-14T02:31:27.462Z,9.60
2023-02-14T02:36:00.193Z,9.50
2023-02-14T02:40:32.892Z,9.50
2023-02-14T02:44:54.752Z,9.40
2023-02-14T02:49:36.733Z,9.20
2023-02-14T02:53:53.055Z,9.10
2023-02-14T02:58:03.130Z,9.10
2023-02-14T03:02:16.502Z,9.10
2023-02-14T03:06:26.004Z,9.00
2023-02-14T03:10:40.150Z,9.10
2023-02-14T03:14:53.810Z,9.10
2023-02-14T03:19:44.653Z,9.00
2023-02-14T03:24:00.872Z,9.00
2023-02-14T03:28:17.474Z,8.90
2023-02-14T03:32:36.812Z,8.80
2023-02-14T03:36:52.934Z,8.60
2023-02-14T03:41:05.635Z,8.60
2023-02-14T03:45:30.634Z,8.50
2023-02-14T03:49:44.718Z,8.20
2023-02-14T03:53:58.833Z,8.10
2023-02-14T03:58:13.411Z,8.10
2023-02-14T04:02:29.139Z,7.90
2023-02-14T04:06:39.033Z,7.90
2023-02-14T04:10:48.513Z,7.80
2023-02-14T04:14:57.812Z,7.60
2023-02-14T04:19:26.815Z,7.60
2023-02-14T04:23:36.191Z,7.50
2023-02-14T04:27:45.737Z,7.50
2023-02-14T04:31:55.163Z,7.40
2023-02-14T04:36:06.751Z,7.40
2023-02-14T04:40:18.670Z,7.40
2023-02-14T04:44:29.337Z,7.40
2023-02-14T04:48:38.794Z,7.30
2023-02-14T04:52:50.057Z,7.30
2023-02-14T04:56:59.490Z,7.30
2023-02-14T05:01:08.816Z,7.20
2023-02-14T05:05:18.328Z,7.10
2023-02-14T05:09:29.768Z,7.00
2023-02-14T05:13:39.086Z,7.10
2023-02-14T05:17:48.372Z,7.00
2023-02-14T05:21:57.794Z,6.80
2023-02-14T05:26:08.732Z,6.60
2023-02-14T05:30:18.730Z,6.50
2023-02-14T05:34:28.165Z,6.40
2023-02-14T05:38:37.686Z,6.40
2023-02-14T05:42:48.612Z,6.30
2023-02-14T05:46:58.028Z,6.20
2023-02-14T05:51:08.510Z,6.10
2023-02-14T05:55:18.029Z,6.00
2023-02-14T05:59:28.910Z,6.00
2023-02-14T06:03:38.131Z,5.90
2023-02-14T06:07:50.868Z,5.80
2023-02-14T06:12:00.513Z,5.80
2023-02-14T06:16:11.410Z,5.70
2023-02-14T06:20:20.935Z,5.70
2023-02-14T06:24:30.559Z,5.60
2023-02-14T06:28:40.036Z,5.60
2023-02-14T06:32:50.976Z,5.50
2023-02-14T06:37:00.257Z,5.50
2023-02-14T06:41:11.644Z,5.40
2023-02-14T06:45:21.201Z,5.40
2023-02-14T06:49:32.020Z,5.30
2023-02-14T06:53:41.374Z,5.30
2023-02-14T06:57:50.694Z,5.20
2023-02-14T07:02:00.015Z,5.20
2023-02-14T07:06:11.214Z,5.20
2023-02-14T07:10:20.734Z,5.20
2023-02-14T07:14:30.092Z,5.20
2023-02-14T07:18:39.593Z,5.20
2023-02-14T07:22:50.435Z,5.10
2023-02-14T07:27:00.192Z,5.10
2023-02-14T07:31:10.211Z,5.10
2023-02-14T07:35:20.773Z,5.10
2023-02-14T07:39:35.699Z,5.00
2023-02-14T07:43:47.974Z,5.00
2023-02-14T07:48:02.880Z,5.00
2023-02-14T07:52:12.370Z,5.00
2023-02-14T07:56:23.251Z,5.00
2023-02-14T08:00:32.914Z,5.00
2023-02-14T08:04:42.438Z,5.00
2023-02-14T08:08:51.985Z,5.10
2023-02-14T08:13:03.888Z,5.20
2023-02-14T08:17:14.210Z,5.40
2023-02-14T08:21:23.507Z,5.70
2023-02-14T08:25:33.805Z,6.00
2023-02-14T08:29:46.207Z,6.20
2023-02-14T08:33:58.904Z,6.40
2023-02-14T08:38:08.927Z,6.60
2023-02-14T08:42:18.943Z,6.90
2023-02-14T08:46:30.309Z,7.00
2023-02-14T08:50:40.672Z,7.20
2023-02-14T08:54:50.147Z,7.30
2023-02-14T08:58:59.476Z,7.50
2023-02-14T09:08:11.828Z,7.90
2023-02-14T09:12:21.322Z,8.00
2023-02-14T09:16:30.882Z,8.20
2023-02-14T09:21:07.746Z,8.40
2023-02-14T09:25:41.094Z,8.70
2023-02-14T09:29:52.548Z,8.80
2023-02-14T09:34:19.248Z,9.10
2023-02-14T09:38:29.167Z,9.30
2023-02-14T09:43:02.357Z,9.50
2023-02-14T09:52:15.611Z,10.00
2023-02-14T10:11:40.670Z,11.00
2023-02-14T10:20:26.173Z,11.30
2023-02-14T10:29:25.667Z,11.60
2023-02-14T10:38:59.357Z,12.10
2023-02-14T10:48:53.148Z,12.40
2023-02-14T10:58:04.111Z,12.60
2023-02-14T11:02:34.956Z,12.70
2023-02-14T12:08:58.916Z,12.50
2023-02-14T12:13:27.899Z,12.30
2023-02-14T12:17:41.134Z,12.10
2023-02-14T12:22:00.772Z,12.20
2023-02-14T12:26:19.507Z,12.40
2023-02-14T12:30:36.458Z,12.60
2023-02-14T12:34:48.311Z,12.50
2023-02-14T12:39:09.249Z,12.60
2023-02-14T12:43:52.306Z,12.60
2023-02-14T12:48:16.752Z,12.40
2023-02-14T12:52:52.668Z,12.20
2023-02-14T12:57:09.927Z,12.00
2023-02-14T13:01:52.650Z,12.20
2023-02-14T13:06:13.871Z,12.40
2023-02-14T13:10:41.153Z,12.30
2023-02-14T13:15:05.755Z,12.00
2023-02-14T13:19:26.669Z,12.00
2023-02-14T13:23:41.373Z,12.20
2023-02-14T13:27:53.950Z,12.10
2023-02-14T13:32:46.750Z,12.20
2023-02-14T13:36:59.033Z,12.20
2023-02-14T13:41:10.756Z,12.30
2023-02-14T13:45:55.625Z,12.30
2023-02-14T13:50:15.827Z,12.20
2023-02-14T13:54:40.207Z,12.30
2023-02-14T13:58:50.610Z,12.00
2023-02-14T14:03:01.987Z,12.20
2023-02-14T14:07:20.202Z,12.20
2023-02-14T14:12:01.264Z,12.40
2023-02-14T14:16:29.818Z,12.60
2023-02-14T14:20:49.293Z,12.60
2023-02-14T14:25:08.485Z,12.70
2023-02-14T14:29:23.525Z,12.70
2023-02-14T14:33:35.320Z,12.70
2023-02-14T14:37:53.585Z,12.50
2023-02-14T14:42:12.556Z,12.40
2023-02-14T14:46:25.444Z,12.30
2023-02-14T14:50:46.649Z,12.00
2023-02-14T14:55:01.735Z,12.10
2023-02-14T14:59:28.970Z,12.00
2023-02-14T15:03:38.331Z,12.00
2023-02-14T15:07:47.698Z,12.10
2023-02-14T15:12:28.517Z,12.10
2023-02-14T15:16:43.442Z,11.80
2023-02-14T15:20:53.734Z,11.80
2023-02-14T15:25:07.395Z,11.80
2023-02-14T15:29:27.555Z,11.70
2023-02-14T15:33:37.925Z,11.70
2023-02-14T15:37:48.617Z,11.80
2023-02-14T15:41:57.860Z,11.70
2023-02-14T15:46:21.563Z,11.80
2023-02-14T15:50:33.350Z,11.80
2023-02-14T15:54:46.660Z,11.60
2023-02-14T15:59:01.201Z,11.50
2023-02-14T16:03:20.352Z,11.50
2023-02-14T16:07:30.810Z,11.50
2023-02-14T16:11:40.427Z,11.40
2023-02-14T16:16:00.007Z,11.30
2023-02-14T16:20:30.300Z,11.20
2023-02-14T16:24:40.609Z,11.10
2023-02-14T16:28:51.740Z,11.00
2023-02-14T16:33:00.926Z,11.10
2023-02-14T16:37:22.236Z,11.00
2023-02-14T16:41:32.704Z,10.90
2023-02-14T16:45:42.127Z,10.70
2023-02-14T16:49:53.364Z,10.50
2023-02-14T16:54:08.978Z,10.50
2023-02-14T16:58:20.038Z,10.40
2023-02-14T17:02:30.050Z,10.30
2023-02-14T17:06:45.258Z,10.30
2023-02-14T19:00:35.823Z,9.10
2023-02-14T19:05:15.266Z,9.00
2023-02-14T19:19:18.721Z,9.10
2023-02-14T19:23:33.638Z,9.10
2023-02-14T19:27:49.388Z,9.20
2023-02-14T19:32:03.677Z,9.20
2023-02-14T19:40:57.133Z,9.50
2023-02-14T19:45:11.033Z,9.50
2023-02-14T19:49:31.391Z,9.50
2023-02-14T19:53:52.885Z,9.60
2023-02-14T19:58:08.408Z,9.70
2023-02-14T20:07:00.646Z,9.80
2023-02-14T20:11:30.070Z,10.00
2023-02-14T20:21:26.909Z,10.10
2023-02-14T20:25:51.805Z,10.10
2023-02-14T20:30:02.680Z,10.10
2023-02-14T20:34:14.585Z,10.10
2023-02-14T20:38:25.867Z,10.10
2023-02-14T20:42:35.786Z,10.00
2023-02-14T20:46:46.647Z,10.00
2023-02-14T20:50:55.885Z,10.00
2023-02-14T20:55:05.126Z,10.00
2023-02-14T20:59:14.739Z,10.00
2023-02-14T21:03:26.322Z,10.10
2023-02-14T21:07:35.346Z,10.10
2023-02-14T21:11:45.022Z,10.10
2023-02-14T21:15:54.407Z,10.10
2023-02-14T21:20:05.606Z,10.10
2023-02-14T21:24:16.784Z,10.10
2023-02-14T21:28:25.950Z,10.10
2023-02-14T21:32:35.150Z,10.00
2023-02-14T21:36:45.905Z,10.00
2023-02-14T21:41:04.631Z,10.00
2023-02-14T21:45:32.635Z,9.90
2023-02-14T21:50:03.557Z,9.90
2023-02-14T21:54:15.394Z,9.80
2023-02-14T21:58:51.576Z,9.70
2023-02-14T22:03:02.125Z,9.70
2023-02-14T22:07:14.374Z,9.70
2023-02-14T22:11:26.277Z,9.70
2023-02-14T22:15:37.825Z,9.70
2023-02-14T22:19:47.190Z,9.70
2023-02-14T22:28:35.750Z,9.80
2023-02-14T22:32:44.907Z,9.70
2023-02-14T22:36:54.029Z,9.70
2023-02-14T22:41:07.889Z,9.80
2023-02-14T22:45:18.749Z,9.80
2023-02-14T22:49:28.325Z,9.80
2023-02-14T22:53:37.951Z,9.80
2023-02-14T22:57:47.207Z,9.80
2023-02-14T23:01:57.986Z,9.90
2023-02-14T23:06:07.304Z,9.90
2023-02-14T23:10:16.408Z,9.90
2023-02-14T23:14:42.564Z,9.80
2023-02-14T23:19:10.725Z,9.90
2023-02-14T23:23:19.905Z,9.80
2023-02-14T23:27:33.626Z,9.80
2023-02-14T23:31:42.807Z,9.80
2023-02-14T23:35:53.583Z,9.80
2023-02-14T23:40:02.752Z,9.70
2023-02-14T23:44:11.891Z,9.60
2023-02-14T23:48:21.181Z,9.50
2023-02-14T23:52:32.089Z,9.50
2023-02-14T23:56:42.328Z,9.40
